Time;durP1;ratioP1;P1;durP2;ratioP2;P2;SDS_P1;SDS_P2;PMS_P1;PMS_P2;Temp;Humidity;BMP_temperature;BMP_pressure;BME280_temperature;BME280_humidity;BME280_pressure;Samples;Min_cycle;Max_cycle;Signal;HPM_P1;HPM_P2
2023/10/02 00:03:39;;;;;;;11.68;4.25;;;;;;;10.80;100.00;99490.41;4991243;28;20100;-74
2023/10/02 00:06:04;;;;;;;;;;;;;;;10.78;100.00;99487.03;4988346;28;20045;-74
2023/10/02 00:09:13;;;;;;;14.32;4.13;;;;;;;10.67;100.00;99472.13;4993212;28;19913;-73
2023/10/02 00:11:41;;;;;;;7.50;3.33;;;;;;;10.62;100.00;99479.97;4985850;28;20049;-74
2023/10/02 00:14:18;;;;;;;11.02;4.25;;;;;;;10.62;100.00;99488.91;4987660;28;20544;-74
2023/10/02 00:17:00;;;;;;;9.93;3.83;;;;;;;10.71;100.00;99489.66;4992410;28;20038;-75
2023/10/02 00:19:27;;;;;;;11.60;4.32;;;;;;;10.72;100.00;99494.88;4995321;28;20054;-75
2023/10/02 00:22:05;;;;;;;10.40;4.03;;;;;;;10.62;100.00;99485.38;4993994;28;20022;-75
2023/10/02 00:24:35;;;;;;;15.07;4.53;;;;;;;10.66;100.00;99498.34;4994268;28;20146;-74
2023/10/02 00:27:01;;;;;;;14.00;4.50;;;;;;;10.53;100.00;99495.44;4990688;28;20045;-75
2023/10/02 00:29:28;;;;;;;8.30;3.80;;;;;;;10.54;100.00;99505.25;4988842;28;20030;-74
2023/10/02 00:31:53;;;;;;;10.60;3.78;;;;;;;10.49;100.00;99489.56;4993924;28;20062;-74
2023/10/02 00:34:31;;;;;;;9.82;4.25;;;;;;;10.51;100.00;99487.50;5003164;28;20129;-73
2023/10/02 00:37:05;;;;;;;8.13;3.45;;;;;;;10.52;100.00;99494.59;4992614;28;20026;-74
2023/10/02 00:39:36;;;;;;;9.32;3.90;;;;;;;10.34;100.00;99471.63;4994425;28;20490;-74
2023/10/02 00:45:02;;;;;;;12.02;4.82;;;;;;;10.33;100.00;99475.38;4993048;28;20509;-74
2023/10/02 00:47:40;;;;;;;9.27;4.22;;;;;;;10.24;100.00;99474.56;4993921;28;20049;-74
2023/10/02 00:50:07;;;;;;;9.37;4.63;;;;;;;10.36;100.00;99477.72;4992523;28;20022;-75
2023/10/02 00:52:33;;;;;;;8.63;3.72;;;;;;;10.28;100.00;99463.25;4992472;28;20030;-73
2023/10/02 00:55:05;;;;;;;7.03;3.63;;;;;;;10.35;100.00;99471.47;4993281;28;20528;-74
2023/10/02 00:57:30;;;;;;;10.77;4.03;;;;;;;10.25;100.00;99463.59;4993489;28;20613;-74
2023/10/02 00:59:59;;;;;;;10.00;4.20;;;;;;;10.08;100.00;99435.84;4993652;28;20037;-75
2023/10/02 01:02:25;;;;;;;9.05;4.05;;;;;;;10.19;100.00;99452.66;4993070;28;20034;-73
2023/10/02 01:04:51;;;;;;;11.65;4.70;;;;;;;10.21;100.00;99462.25;4992368;28;20033;-74
2023/10/02 01:07:17;;;;;;;9.93;4.13;;;;;;;10.06;100.00;99442.47;5002587;28;20030;-73
2023/10/02 01:10:07;;;;;;;8.82;3.80;;;;;;;10.05;100.00;99457.84;4991451;28;20117;-73
2023/10/02 01:12:38;;;;;;;11.43;3.88;;;;;;;10.05;100.00;99457.03;4993377;28;20042;-75
2023/10/02 01:15:07;;;;;;;11.88;4.03;;;;;;;9.99;100.00;99463.19;4999925;28;20033;-73
2023/10/02 01:17:33;;;;;;;11.10;3.78;;;;;;;9.96;100.00;99469.78;4993177;28;20672;-74
2023/10/02 01:20:01;;;;;;;14.57;3.67;;;;;;;10.07;100.00;99468.50;5014003;22;20057;-52
2023/10/02 01:22:42;;;;;;;9.75;4.00;;;;;;;10.14;100.00;99472.16;4984303;28;20048;-52
2023/10/02 01:25:14;;;;;;;10.20;3.88;;;;;;;10.16;100.00;99470.09;4980171;28;20031;-52
2023/10/02 01:27:41;;;;;;;9.85;3.80;;;;;;;10.10;100.00;99470.84;4970374;28;20477;-52
2023/10/02 01:30:21;;;;;;;10.60;3.60;;;;;;;10.06;100.00;99469.50;4990853;28;20098;-52
2023/10/02 01:33:14;;;;;;;11.05;3.80;;;;;;;10.15;100.00;99468.41;4992439;28;20049;-52
2023/10/02 01:35:46;;;;;;;8.70;4.25;;;;;;;10.21;100.00;99467.66;4988844;28;21196;-52
2023/10/02 01:38:18;;;;;;;8.82;3.75;;;;;;;10.15;100.00;99465.72;4989996;28;20030;-52
2023/10/02 01:40:54;;;;;;;10.20;4.00;;;;;;;10.06;100.00;99458.69;4991587;28;20481;-52
2023/10/02 01:43:27;;;;;;;9.35;4.00;;;;;;;9.95;100.00;99459.16;4987410;28;20038;-52
2023/10/02 01:46:00;;;;;;;10.55;4.35;;;;;;;9.85;100.00;99468.38;4986114;28;20018;-52
2023/10/02 01:48:44;;;;;;;15.77;4.82;;;;;;;10.03;100.00;99470.75;4988589;28;20038;-52
2023/10/02 01:51:20;;;;;;;14.70;4.43;;;;;;;9.99;100.00;99480.22;5008871;28;20037;-52
2023/10/02 01:53:53;;;;;;;13.25;4.75;;;;;;;9.93;100.00;99480.09;4990238;28;20026;-52
2023/10/02 01:56:19;;;;;;;13.98;4.78;;;;;;;9.98;100.00;99485.81;4989848;28;20030;-52
2023/10/02 01:58:48;;;;;;;11.40;4.63;;;;;;;9.96;100.00;99483.31;5005663;28;20053;-52
2023/10/02 02:01:14;;;;;;;14.95;5.15;;;;;;;10.00;100.00;99486.47;4990825;28;20699;-52
2023/10/02 02:03:42;;;;;;;13.88;5.55;;;;;;;10.10;100.00;99487.06;4990421;28;20093;-52
2023/10/02 02:06:08;;;;;;;12.57;5.30;;;;;;;10.01;100.00;99488.16;4991287;28;20450;-52
2023/10/02 02:08:43;;;;;;;11.73;5.20;;;;;;;10.12;100.00;99487.72;5008400;28;20552;-52
2023/10/02 02:11:16;;;;;;;11.50;4.93;;;;;;;10.11;100.00;99494.13;5003532;28;20437;-52
2023/10/02 02:13:53;;;;;;;10.40;4.25;;;;;;;10.06;100.00;99496.53;5007462;28;20026;-52
2023/10/02 02:16:33;;;;;;;13.57;4.95;;;;;;;9.93;100.00;99488.22;4985063;28;20026;-52
2023/10/02 02:19:07;;;;;;;12.48;5.28;;;;;;;9.86;100.00;99499.75;4982622;28;20023;-52
2023/10/02 02:21:34;;;;;;;9.77;4.28;;;;;;;9.85;100.00;99494.53;4991783;28;20034;-52
2023/10/02 02:24:11;;;;;;;17.95;5.40;;;;;;;9.84;100.00;99493.69;4990301;28;20038;-52
2023/10/02 02:26:39;;;;;;;8.95;4.00;;;;;;;9.82;100.00;99492.19;4991614;28;20158;-52
2023/10/02 02:29:05;;;;;;;13.32;4.45;;;;;;;9.87;100.00;99489.78;4988482;28;20041;-52
2023/10/02 02:31:32;;;;;;;11.13;5.03;;;;;;;9.85;100.00;99495.41;5004445;28;20031;-52
2023/10/02 02:34:17;;;;;;;10.77;4.38;;;;;;;9.80;100.00;99494.25;5005765;28;20027;-52
2023/10/02 02:36:47;;;;;;;11.00;4.80;;;;;;;9.77;100.00;99497.31;4990642;28;20470;-52
2023/10/02 02:39:16;;;;;;;8.90;4.03;;;;;;;9.78;100.00;99497.13;4991823;28;20022;-52
2023/10/02 02:41:41;;;;;;;;;;;;;;;9.77;100.00;99498.16;4992504;28;20034;-52
2023/10/02 02:44:29;;;;;;;10.25;3.97;;;;;;;9.77;100.00;99498.16;5000185;28;20352;-52
2023/10/02 02:46:53;;;;;;;12.38;4.53;;;;;;;9.79;100.00;99495.25;4989221;28;20130;-52
2023/10/02 02:49:19;;;;;;;9.10;3.97;;;;;;;9.78;100.00;99491.72;4991774;28;20030;-52
2023/10/02 02:51:48;;;;;;;9.32;4.32;;;;;;;9.78;100.00;99499.00;4991736;28;20027;-52
2023/10/02 02:54:14;;;;;;;12.18;4.43;;;;;;;9.73;100.00;99491.44;4989897;28;20034;-52
2023/10/02 02:56:40;;;;;;;14.18;4.30;;;;;;;9.65;100.00;99496.91;4994930;28;20073;-52
2023/10/02 02:59:08;;;;;;;8.65;4.25;;;;;;;9.65;100.00;99496.91;4991273;28;20026;-52
2023/10/02 03:01:33;;;;;;;10.95;4.50;;;;;;;9.67;100.00;99489.47;4985059;28;20033;-52
2023/10/02 03:04:11;;;;;;;11.45;4.70;;;;;;;9.66;100.00;99491.28;4988214;28;20034;-52
2023/10/02 03:06:37;;;;;;;13.43;4.35;;;;;;;9.67;100.00;99497.56;4991074;28;20323;-52
2023/10/02 03:09:05;;;;;;;10.05;4.32;;;;;;;9.66;100.00;99502.09;4991427;28;20156;-52
2023/10/02 03:11:32;;;;;;;11.50;4.63;;;;;;;9.66;100.00;99501.28;5007957;28;20038;-52
2023/10/02 03:14:12;;;;;;;9.77;4.07;;;;;;;9.63;100.00;99493.53;4988290;28;20030;-52
2023/10/02 03:16:38;;;;;;;11.55;5.18;;;;;;;9.64;100.00;99489.78;4992136;28;20030;-52
2023/10/02 03:19:07;;;;;;;9.13;4.50;;;;;;;9.57;100.00;99496.97;5002835;28;20109;-52
2023/10/02 03:21:37;;;;;;;11.02;4.97;;;;;;;9.52;100.00;99493.97;4994945;28;20041;-52
2023/10/02 03:24:04;;;;;;;12.68;4.80;;;;;;;9.59;100.00;99501.16;4993546;28;20033;-52
2023/10/02 03:29:05;;;;;;;11.60;4.78;;;;;;;9.47;100.00;99499.88;4989706;28;20493;-52
2023/10/02 03:31:51;;;;;;;8.95;4.32;;;;;;;9.37;100.00;99497.41;4993552;28;20050;-52
2023/10/02 03:34:30;;;;;;;10.15;4.28;;;;;;;9.26;100.00;99500.53;4986484;28;20095;-52
2023/10/02 03:36:59;;;;;;;9.05;4.28;;;;;;;9.12;100.00;99493.19;4991429;28;20080;-52
2023/10/02 03:42:21;;;;;;;11.18;4.28;;;;;;;9.14;100.00;99496.53;4991791;28;20113;-52
2023/10/02 03:44:48;;;;;;;9.57;3.95;;;;;;;9.08;100.00;99491.84;5001575;28;20386;-52
2023/10/02 03:47:13;;;;;;;8.85;3.83;;;;;;;9.11;100.00;99502.28;5007113;28;20064;-52
2023/10/02 03:49:43;;;;;;;10.20;4.82;;;;;;;9.06;100.00;99496.59;4993350;28;20053;-52
2023/10/02 03:52:17;;;;;;;;;;;;;;;9.09;100.00;99497.09;4994474;28;20026;-52
2023/10/02 03:54:43;;;;;;;13.90;5.05;;;;;;;9.18;100.00;99495.19;4992109;28;20626;-52
2023/10/02 03:57:11;;;;;;;17.27;4.68;;;;;;;9.16;100.00;99489.13;4991506;28;20046;-52
2023/10/02 03:59:52;;;;;;;9.88;4.40;;;;;;;9.10;100.00;99497.94;4992740;28;20062;-52
2023/10/02 04:02:30;;;;;;;11.52;4.68;;;;;;;9.13;100.00;99500.25;4991175;28;20088;-52
2023/10/02 04:04:56;;;;;;;9.73;4.63;;;;;;;9.15;100.00;99500.94;4990130;28;20051;-53
2023/10/02 04:07:24;;;;;;;10.98;4.45;;;;;;;9.24;100.00;99507.97;4994571;28;20022;-52
2023/10/02 04:09:50;;;;;;;17.13;4.95;;;;;;;9.35;100.00;99504.00;4993176;28;20038;-53
2023/10/02 04:12:19;;;;;;;13.02;4.60;;;;;;;9.39;100.00;99506.19;4994242;28;20080;-52
2023/10/02 04:14:46;;;;;;;15.45;4.28;;;;;;;9.40;100.00;99494.34;4991849;28;20034;-52
2023/10/02 04:19:49;;;;;;;15.10;4.70;;;;;;;9.48;100.00;99501.56;4995238;28;20037;-53
2023/10/02 04:22:30;;;;;;;13.73;5.30;;;;;;;9.40;100.00;99507.03;5010446;28;20029;-52
2023/10/02 04:25:03;;;;;;;10.60;4.75;;;;;;;9.37;100.00;99508.22;4996138;28;20026;-53
2023/10/02 04:28:00;;;;;;;9.95;4.57;;;;;;;9.26;100.00;99494.28;5008315;28;20058;-53
2023/10/02 04:32:51;;;;;;;13.25;5.55;;;;;;;9.23;100.00;99503.59;4994840;28;20034;-53
2023/10/02 04:38:08;;;;;;;12.75;5.25;;;;;;;9.28;100.00;99509.31;4984380;28;20033;-52
2023/10/02 04:40:44;;;;;;;11.82;5.38;;;;;;;9.23;100.00;99506.28;5001266;28;20755;-52
2023/10/02 04:43:25;;;;;;;11.68;4.80;;;;;;;9.19;100.00;99494.16;4991122;28;20092;-52
2023/10/02 04:46:14;;;;;;;13.05;5.13;;;;;;;9.10;100.00;99506.03;4992416;28;20015;-52
2023/10/02 04:48:42;;;;;;;10.35;5.38;;;;;;;9.10;100.00;99509.56;4992928;28;20037;-52
2023/10/02 04:51:08;;;;;;;12.98;4.57;;;;;;;9.07;100.00;99506.38;5010156;28;20061;-52
2023/10/02 04:53:35;;;;;;;12.30;4.80;;;;;;;9.05;100.00;99505.72;5002702;28;20026;-53
2023/10/02 04:58:51;;;;;;;9.50;4.80;;;;;;;8.97;100.00;99502.03;4993455;28;20402;-52
2023/10/02 05:02:17;;;;;;;10.63;4.97;;;;;;;8.91;100.00;99502.75;5008922;28;20109;-52
2023/10/02 05:04:18;;;;;;;11.57;4.47;;;;;;;8.89;100.00;99507.47;4991795;28;20038;-52
2023/10/02 05:06:52;;;;;;;13.45;4.72;;;;;;;8.92;100.00;99506.28;5003200;28;20520;-52
2023/10/02 05:09:21;;;;;;;11.13;5.00;;;;;;;8.93;100.00;99506.13;4982413;28;20037;-52
2023/10/02 05:11:52;;;;;;;9.80;4.43;;;;;;;8.97;100.00;99512.00;4987546;28;20098;-52
2023/10/02 05:14:29;;;;;;;11.75;4.90;;;;;;;8.97;100.00;99510.13;4989855;28;20026;-52
2023/10/02 05:17:16;;;;;;;13.10;5.57;;;;;;;8.97;100.00;99512.81;4991517;28;20042;-52
2023/10/02 05:20:07;;;;;;;13.75;5.47;;;;;;;8.95;100.00;99514.84;4987275;28;20057;-52
2023/10/02 05:22:36;;;;;;;11.13;4.68;;;;;;;9.00;100.00;99511.63;4991956;28;20026;-52
2023/10/02 05:25:07;;;;;;;10.18;4.32;;;;;;;9.03;100.00;99510.44;4988572;28;20022;-52
2023/10/02 05:27:35;;;;;;;11.10;4.53;;;;;;;9.02;100.00;99523.09;4983526;28;20037;-52
2023/10/02 05:30:17;;;;;;;8.93;4.53;;;;;;;9.13;100.00;99500.25;4992674;28;20521;-52
2023/10/02 05:32:43;;;;;;;16.77;5.38;;;;;;;9.22;100.00;99512.69;4992623;28;20044;-52
2023/10/02 05:37:42;;;;;;;12.98;4.97;;;;;;;9.34;100.00;99516.69;4988347;28;20130;-52
2023/10/02 05:43:09;;;;;;;9.70;4.82;;;;;;;9.62;100.00;99511.59;4992085;28;19960;-52
2023/10/02 05:48:27;;;;;;;12.73;5.25;;;;;;;9.92;100.00;99521.69;4993193;28;20085;-52
2023/10/02 05:50:56;;;;;;;10.57;4.35;;;;;;;10.09;100.00;99509.72;4982768;28;21241;-52
2023/10/02 05:53:25;;;;;;;11.38;4.25;;;;;;;10.31;100.00;99511.53;5005881;28;20040;-52
2023/10/02 05:55:56;;;;;;;;;;;;;;;10.51;100.00;99511.03;4982450;28;20027;-52
2023/10/02 05:58:31;;;;;;;12.45;4.47;;;;;;;10.79;100.00;99502.25;4990632;28;19989;-52
2023/10/02 06:01:01;;;;;;;12.05;5.20;;;;;;;11.78;100.00;99495.25;4989089;28;20552;-52
2023/10/02 06:03:37;;;;;;;12.68;4.40;;;;;;;13.16;100.00;99471.97;4988210;28;20040;-52
2023/10/02 06:06:15;;;;;;;14.23;4.80;;;;;;;13.79;100.00;99457.28;4999549;28;20544;-52
2023/10/02 06:08:51;;;;;;;13.68;4.55;;;;;;;14.37;100.00;99454.75;4991739;28;20466;-52
2023/10/02 06:11:26;;;;;;;8.68;4.05;;;;;;;14.93;100.00;99450.63;4986194;28;20454;-52
2023/10/02 06:13:56;;;;;;;10.27;4.22;;;;;;;15.91;100.00;99449.47;4998109;28;20034;-52
2023/10/02 06:16:29;;;;;;;9.57;4.20;;;;;;;16.84;100.00;99443.91;4987226;28;20125;-52
2023/10/02 06:19:01;;;;;;;14.25;4.55;;;;;;;16.95;100.00;99452.41;4985274;28;20023;-53
2023/10/02 06:21:31;;;;;;;14.18;4.70;;;;;;;17.05;100.00;99448.06;4983339;28;20038;-52
2023/10/02 06:23:58;;;;;;;14.50;4.47;;;;;;;17.31;100.00;99455.09;4995118;28;20027;-53
2023/10/02 06:26:29;;;;;;;16.33;4.75;;;;;;;17.04;100.00;99445.59;4988832;28;20026;-53
2023/10/02 06:29:22;;;;;;;12.13;4.93;;;;;;;17.38;100.00;99459.66;4991825;28;22542;-53
2023/10/02 06:31:51;;;;;;;14.48;4.90;;;;;;;17.61;100.00;99457.00;4982900;28;20041;-53
2023/10/02 06:34:18;;;;;;;13.05;4.72;;;;;;;19.25;100.00;99447.13;4993108;28;20517;-53
2023/10/02 06:37:02;;;;;;;13.43;5.00;;;;;;;21.08;100.00;99450.38;4984459;28;20023;-53
2023/10/02 06:39:35;;;;;;;12.07;4.50;;;;;;;22.44;88.47;99456.69;5006839;28;20076;-53
2023/10/02 06:42:04;;;;;;;10.40;4.45;;;;;;;22.48;87.31;99452.31;4990882;28;20035;-53
2023/10/02 06:44:41;;;;;;;11.90;4.70;;;;;;;22.46;83.70;99457.25;4990328;28;20414;-53
2023/10/02 06:47:11;;;;;;;12.30;5.10;;;;;;;23.12;78.39;99451.28;4988218;28;20030;-54
2023/10/02 06:49:46;;;;;;;12.15;5.15;;;;;;;23.21;74.72;99460.69;5006692;28;20061;-56
2023/10/02 06:52:17;;;;;;;11.48;4.90;;;;;;;23.41;74.01;99457.19;4990857;28;20022;-55
2023/10/02 06:54:49;;;;;;;9.85;5.00;;;;;;;25.03;68.80;99460.22;4994319;28;20038;-56
2023/10/02 06:57:20;;;;;;;10.05;4.75;;;;;;;25.84;64.30;99451.78;4992231;28;20385;-56
2023/10/02 06:59:53;;;;;;;11.10;4.88;;;;;;;25.79;62.45;99464.53;4993026;28;20033;-56
2023/10/02 07:02:26;;;;;;;13.00;5.13;;;;;;;26.50;61.39;99461.50;5009014;28;20030;-56
2023/10/02 07:04:54;;;;;;;10.40;4.70;;;;;;;26.10;60.12;99457.97;4994443;28;20066;-56
2023/10/02 07:07:25;;;;;;;11.73;4.50;;;;;;;26.34;58.42;99455.28;4991115;28;20050;-56
2023/10/02 07:09:55;;;;;;;10.48;4.78;;;;;;;26.65;58.19;99464.16;4993132;28;20382;-56
2023/10/02 07:12:22;;;;;;;15.73;5.00;;;;;;;27.67;56.44;99448.19;4995767;28;20512;-56
2023/10/02 07:14:48;;;;;;;9.88;4.97;;;;;;;26.93;57.38;99456.88;4993273;28;20027;-56
2023/10/02 07:17:17;;;;;;;8.52;4.75;;;;;;;27.76;56.14;99449.16;4989093;28;20113;-56
2023/10/02 07:19:50;;;;;;;9.88;4.93;;;;;;;29.07;54.72;99451.06;5008153;23;20066;-52
2023/10/02 07:22:25;;;;;;;9.98;4.63;;;;;;;29.07;52.76;99451.91;4981587;28;20034;-54
2023/10/02 07:24:55;;;;;;;11.38;4.97;;;;;;;30.35;51.06;99447.00;5009229;28;20034;-54
2023/10/02 07:27:25;;;;;;;10.20;4.88;;;;;;;30.63;49.69;99446.84;4981316;28;20455;-53
2023/10/02 07:29:59;;;;;;;10.40;4.68;;;;;;;31.16;48.95;99433.91;4988007;28;20027;-54
2023/10/02 07:32:31;;;;;;;13.30;5.30;;;;;;;32.88;46.23;99438.91;4974570;28;20402;-53
2023/10/02 07:35:09;;;;;;;13.68;4.72;;;;;;;32.97;44.39;99443.34;4974681;28;20596;-53
2023/10/02 07:37:36;;;;;;;10.52;4.97;;;;;;;33.51;43.47;99434.31;4973206;28;20084;-54
2023/10/02 07:40:06;;;;;;;10.05;5.47;;;;;;;33.85;42.78;99440.00;4965775;28;20062;-54
2023/10/02 07:42:32;;;;;;;18.92;5.20;;;;;;;34.42;41.71;99439.31;4971017;28;20062;-54
2023/10/02 07:45:11;;;;;;;11.98;5.45;;;;;;;32.86;43.33;99435.66;4965685;28;20023;-54
2023/10/02 07:48:08;;;;;;;12.68;5.72;;;;;;;32.97;43.60;99443.34;4962759;28;20035;-54
2023/10/02 07:50:35;;;;;;;11.68;5.40;;;;;;;32.62;44.16;99437.06;4969220;28;20478;-54
2023/10/02 07:53:06;;;;;;;12.63;5.65;;;;;;;33.14;43.66;99442.47;4974299;28;20156;-54
2023/10/02 07:55:34;;;;;;;12.02;5.20;;;;;;;33.98;43.13;99427.66;4974057;28;20019;-54
2023/10/02 07:58:01;;;;;;;14.70;5.70;;;;;;;33.79;42.38;99434.59;4980032;28;20053;-54
2023/10/02 08:00:33;;;;;;;12.68;5.40;;;;;;;34.73;41.32;99435.19;4975193;28;20053;-55
2023/10/02 08:03:02;;;;;;;12.00;5.55;;;;;;;32.51;44.44;99433.81;4967957;28;20033;-54
2023/10/02 08:05:28;;;;;;;12.00;5.15;;;;;;;32.95;44.56;99440.03;4955156;28;20382;-54
2023/10/02 08:08:08;;;;;;;13.88;5.32;;;;;;;31.90;45.86;99432.22;4959903;28;20113;-54
2023/10/02 08:10:49;;;;;;;14.82;5.53;;;;;;;33.38;44.42;99424.16;4967446;28;20122;-54
2023/10/02 08:13:17;;;;;;;10.70;5.32;;;;;;;33.22;44.02;99423.09;4967594;28;20047;-54
2023/10/02 08:15:46;;;;;;;;;;;;;;;32.06;46.04;99431.38;4968716;28;20554;-54
2023/10/02 08:18:17;;;;;;;17.58;5.38;;;;;;;32.83;45.48;99422.28;4971601;28;20443;-54
2023/10/02 08:20:45;;;;;;;15.63;6.07;;;;;;;33.56;44.47;99424.88;4962602;28;20054;-53
2023/10/02 08:23:21;;;;;;;;;;;;;;;35.00;42.47;99426.03;4959322;28;20037;-54
2023/10/02 08:25:47;;;;;;;15.55;5.80;;;;;;;35.46;41.75;99421.09;4975975;28;20388;-54
2023/10/02 08:28:23;;;;;;;12.57;5.95;;;;;;;35.14;41.68;99425.75;4965826;28;20031;-54
2023/10/02 08:30:59;;;;;;;14.90;5.95;;;;;;;36.36;40.82;99413.28;4962561;28;20026;-54
2023/10/02 08:33:26;;;;;;;14.85;6.28;;;;;;;36.53;40.11;99422.59;4974780;28;20027;-53
2023/10/02 08:35:52;;;;;;;12.15;6.20;;;;;;;37.43;39.25;99418.00;4973991;28;20473;-53
2023/10/02 08:38:25;;;;;;;13.07;5.50;;;;;;;36.83;40.09;99420.97;4964511;28;20035;-53
2023/10/02 08:41:10;;;;;;;12.23;6.05;;;;;;;37.97;38.72;99410.72;4971577;28;20019;-54
2023/10/02 08:43:42;;;;;;;12.02;5.60;;;;;;;37.75;37.85;99415.06;4962587;28;20089;-53
2023/10/02 08:46:19;;;;;;;11.50;6.22;;;;;;;37.95;38.14;99415.91;4977744;28;20091;-53
2023/10/02 08:48:47;;;;;;;11.63;5.53;;;;;;;39.30;37.35;99411.06;4973318;28;20034;-54
2023/10/02 08:51:26;;;;;;;11.48;5.68;;;;;;;39.03;36.07;99407.41;4968747;28;20037;-53
2023/10/02 08:53:57;;;;;;;13.45;5.90;;;;;;;38.78;36.31;99404.16;4970896;28;20058;-54
2023/10/02 08:56:24;;;;;;;14.50;6.32;;;;;;;38.67;36.31;99403.16;4963415;28;20034;-54
2023/10/02 08:59:16;;;;;;;12.73;6.47;;;;;;;37.67;36.91;99405.63;4958611;28;20035;-54
2023/10/02 09:01:37;;;;;;;15.48;6.82;;;;;;;38.07;36.62;99400.81;4962668;28;20124;-53
2023/10/02 09:06:57;;;;;;;14.00;6.00;;;;;;;37.41;36.86;99409.06;4966538;28;20118;-54
2023/10/02 09:09:36;;;;;;;13.52;6.88;;;;;;;37.16;36.77;99400.03;4967792;28;20486;-53
2023/10/02 09:12:03;;;;;;;12.35;6.60;;;;;;;38.07;36.41;99393.16;4969962;28;20037;-53
2023/10/02 09:17:07;;;;;;;16.25;7.25;;;;;;;39.22;35.24;99400.81;4964115;28;20394;-54
2023/10/02 09:19:39;;;;;;;18.17;6.30;;;;;;;38.74;35.47;99392.78;4965874;28;20050;-53
2023/10/02 09:22:10;;;;;;;12.03;6.63;;;;;;;38.43;35.85;99388.19;4969782;28;20029;-57
2023/10/02 09:24:40;;;;;;;15.10;7.57;;;;;;;38.11;36.56;99394.03;4965494;28;20109;-57
2023/10/02 09:27:28;;;;;;;15.07;6.70;;;;;;;39.00;36.09;99389.19;4965261;28;20023;-56
2023/10/02 09:32:47;;;;;;;13.40;7.03;;;;;;;40.23;34.30;99386.00;4967218;28;20026;-56
2023/10/02 09:35:25;;;;;;;15.13;6.78;;;;;;;38.62;35.82;99383.66;4961491;28;20027;-56
2023/10/02 09:37:58;;;;;;;12.52;6.40;;;;;;;38.20;36.11;99378.84;4971522;28;20109;-56
2023/10/02 09:43:35;;;;;;;15.45;7.20;;;;;;;40.26;34.24;99382.38;5014179;23;20041;-51
2023/10/02 09:46:05;;;;;;;13.27;6.65;;;;;;;39.08;34.43;99377.97;5009089;28;20018;-51
2023/10/02 09:48:46;;;;;;;11.57;6.65;;;;;;;39.60;35.11;99370.63;5017357;28;20159;-51
2023/10/02 09:51:37;;;;;;;14.77;6.93;;;;;;;40.26;34.08;99369.00;5025680;28;20029;-49
2023/10/02 09:54:09;;;;;;;11.73;6.80;;;;;;;39.60;34.53;99370.63;5023768;28;20376;-49
2023/10/02 09:56:41;;;;;;;14.68;7.18;;;;;;;38.75;34.86;99362.47;5019897;28;20049;-49
2023/10/02 09:59:16;;;;;;;13.18;7.45;;;;;;;39.61;33.93;99349.59;5025604;28;20037;-49
2023/10/02 10:01:41;;;;;;;14.60;7.35;;;;;;;40.97;33.12;99346.09;5020547;28;20116;-51
2023/10/02 10:07:08;;;;;;;14.32;7.65;;;;;;;39.65;34.41;99354.13;5021725;28;20057;-50
2023/10/02 10:09:52;;;;;;;13.35;6.97;;;;;;;39.36;35.61;99338.78;5025133;28;20029;-50
2023/10/02 10:12:50;;;;;;;16.50;7.32;;;;;;;40.95;32.95;99342.88;5014300;28;20025;-50
2023/10/02 10:15:29;;;;;;;13.30;6.85;;;;;;;41.08;32.84;99343.38;5021310;28;20041;-50
2023/10/02 10:17:56;;;;;;;14.05;6.82;;;;;;;40.66;33.22;99346.69;5011136;28;20045;-50
2023/10/02 10:20:25;;;;;;;14.65;7.07;;;;;;;39.92;34.58;99347.56;5020684;28;20022;-50
2023/10/02 10:22:50;;;;;;;14.00;6.78;;;;;;;39.74;34.23;99339.63;5028485;28;20032;-50
2023/10/02 10:28:02;;;;;;;11.95;7.22;;;;;;;40.85;32.28;99328.59;5023333;28;20117;-50
2023/10/02 10:35:34;;;;;;;11.82;7.05;;;;;;;42.00;31.23;99325.13;5027291;28;20420;-50
2023/10/02 10:38:03;;;;;;;16.33;7.47;;;;;;;43.52;29.89;99329.47;5021420;28;20092;-50
2023/10/02 10:40:46;;;;;;;12.32;6.75;;;;;;;41.82;31.53;99322.22;5015897;28;20037;-50
2023/10/02 10:43:14;;;;;;;14.13;6.88;;;;;;;42.17;31.98;99319.88;5025453;28;20037;-50
2023/10/02 10:45:40;;;;;;;14.73;7.38;;;;;;;40.07;31.59;99312.50;5027621;28;20021;-50
2023/10/02 10:48:26;;;;;;;13.85;6.82;;;;;;;40.72;31.67;99309.06;5023816;28;20480;-50
2023/10/02 10:51:06;;;;;;;13.63;6.82;;;;;;;42.62;29.79;99317.47;5023282;28;20436;-50
2023/10/02 10:53:39;;;;;;;13.20;7.03;;;;;;;42.78;30.21;99311.38;5036726;28;20444;-50
2023/10/02 10:56:16;;;;;;;14.27;6.95;;;;;;;42.45;30.01;99311.38;5022074;28;20021;-50
2023/10/02 10:59:02;;;;;;;13.40;6.95;;;;;;;41.73;30.49;99312.44;5022749;28;20034;-50
2023/10/02 11:01:27;;;;;;;13.90;6.95;;;;;;;41.21;31.63;99308.97;5024432;28;20578;-50
2023/10/02 11:04:01;;;;;;;15.90;7.10;;;;;;;42.71;29.80;99303.66;5030678;28;20033;-50
2023/10/02 11:06:28;;;;;;;12.73;7.53;;;;;;;43.29;28.72;99302.31;5025563;28;20441;-50
2023/10/02 11:09:15;;;;;;;14.77;8.23;;;;;;;43.90;28.22;99301.22;5033488;28;20480;-50
2023/10/02 11:11:58;;;;;;;15.13;7.63;;;;;;;44.06;29.35;99295.84;5025369;28;20385;-50
2023/10/02 11:14:38;;;;;;;15.55;8.32;;;;;;;42.67;29.81;99297.13;5026979;28;20033;-50
2023/10/02 11:17:04;;;;;;;16.38;8.57;;;;;;;42.53;28.84;99300.00;5016785;28;20037;-50
2023/10/02 11:22:14;;;;;;;17.37;9.50;;;;;;;44.65;28.07;99286.41;5033248;28;20485;-51
2023/10/02 11:25:04;;;;;;;20.15;10.13;;;;;;;44.95;27.32;99282.84;5021918;28;20108;-50
2023/10/02 11:27:29;;;;;;;16.67;9.05;;;;;;;44.76;27.82;99294.84;5024508;28;20353;-51
2023/10/02 11:30:01;;;;;;;15.55;8.52;;;;;;;45.05;28.36;99281.09;5027464;28;20532;-51
2023/10/02 11:32:59;;;;;;;16.27;9.07;;;;;;;45.14;28.34;99281.38;5025329;28;20026;-51
2023/10/02 11:35:28;;;;;;;14.32;8.30;;;;;;;46.12;27.24;99276.03;5022403;28;20083;-51
2023/10/02 11:37:56;;;;;;;16.50;9.63;;;;;;;44.24;27.06;99272.88;5032907;28;20024;-51
2023/10/02 11:40:25;;;;;;;18.00;9.43;;;;;;;44.35;27.22;99262.19;5031398;28;20021;-51
2023/10/02 11:42:54;;;;;;;19.13;9.25;;;;;;;43.23;28.56;99266.13;5028799;28;20052;-51
2023/10/02 11:45:19;;;;;;;17.48;9.18;;;;;;;44.79;27.52;99249.16;5032715;28;20032;-51
2023/10/02 11:47:45;;;;;;;15.95;8.55;;;;;;;43.83;28.02;99258.50;5020747;28;20025;-50
2023/10/02 11:50:15;;;;;;;19.30;9.50;;;;;;;44.92;28.01;99246.56;5018937;28;20033;-50
2023/10/02 11:52:41;;;;;;;18.63;9.07;;;;;;;43.27;28.87;99250.66;5029442;28;20025;-51
2023/10/02 11:55:06;;;;;;;16.83;9.47;;;;;;;43.29;28.01;99236.00;5027135;28;20034;-51
2023/10/02 11:57:33;;;;;;;16.73;9.82;;;;;;;42.86;28.07;99248.31;5028286;28;20284;-51
2023/10/02 12:00:08;;;;;;;19.67;10.03;;;;;;;41.99;28.45;99235.38;5030700;28;20021;-50
2023/10/02 12:02:33;;;;;;;17.90;10.00;;;;;;;42.49;29.24;99236.59;5027600;28;20025;-50
2023/10/02 12:04:58;;;;;;;20.15;9.90;;;;;;;40.94;29.74;99229.72;5021056;28;20017;-51
2023/10/02 12:07:24;;;;;;;18.88;9.35;;;;;;;41.72;29.18;99220.72;5017562;28;20034;-51
2023/10/02 12:09:49;;;;;;;19.58;9.95;;;;;;;41.24;28.93;99226.66;5004297;28;20029;-51
2023/10/02 12:12:15;;;;;;;19.17;9.75;;;;;;;42.59;28.87;99228.03;5028008;28;20037;-51
2023/10/02 12:14:42;;;;;;;17.58;9.77;;;;;;;42.46;28.15;99224.81;5024014;28;20026;-50
2023/10/02 12:17:11;;;;;;;18.90;9.53;;;;;;;41.36;28.66;99214.91;5031881;28;20033;-50
2023/10/02 12:19:39;;;;;;;19.45;9.82;;;;;;;41.29;28.82;99219.75;5015068;28;20366;-50
2023/10/02 12:22:06;;;;;;;18.20;9.38;;;;;;;42.64;28.57;99212.59;5019435;28;20028;-51
2023/10/02 12:24:35;;;;;;;16.15;8.68;;;;;;;42.27;29.01;99207.34;5023807;28;20033;-50
2023/10/02 12:27:01;;;;;;;17.50;9.68;;;;;;;42.63;27.33;99205.25;5025242;28;20465;-51
2023/10/02 12:29:29;;;;;;;18.67;9.27;;;;;;;42.66;26.52;99199.59;5029708;28;20025;-50
2023/10/02 12:32:00;;;;;;;15.63;8.93;;;;;;;42.65;27.45;99200.78;5021439;28;20380;-51
2023/10/02 12:34:26;;;;;;;18.65;9.63;;;;;;;43.29;26.92;99196.94;5023331;28;20044;-51
2023/10/02 12:36:53;;;;;;;18.65;10.00;;;;;;;43.50;27.12;99189.50;5027401;28;20100;-51
2023/10/02 12:39:19;;;;;;;18.05;9.90;;;;;;;42.60;26.09;99184.13;5032132;28;20029;-51
2023/10/02 12:41:44;;;;;;;19.77;10.02;;;;;;;42.86;27.76;99179.19;5029953;28;20036;-51
2023/10/02 12:44:10;;;;;;;19.23;9.75;;;;;;;43.42;26.51;99179.38;5020282;28;20072;-50